createdAt,value
2017-11-08T00:00:33.434Z,6.20
2017-11-08T00:03:01.565Z,6.20
2017-11-08T00:05:29.703Z,6.30
2017-11-08T00:08:04.444Z,6.20
2017-11-08T00:10:32.747Z,6.37
2017-11-08T00:13:00.990Z,7.00
2017-11-08T00:15:29.897Z,5.80
2017-11-08T00:17:58.793Z,4.90
2017-11-08T00:20:27.701Z,6.30
2017-11-08T00:22:55.870Z,5.63
2017-11-08T00:25:24.009Z,7.27
2017-11-08T00:27:52.159Z,6.20
2017-11-08T00:30:20.295Z,6.20
2017-11-08T00:32:48.409Z,6.57
2017-11-08T00:35:17.707Z,6.07
2017-11-08T00:37:45.967Z,5.50
2017-11-08T00:40:14.196Z,5.67
2017-11-08T00:42:42.625Z,6.40
2017-11-08T00:45:10.731Z,5.60
2017-11-08T00:47:38.852Z,6.50
2017-11-08T00:50:06.958Z,6.03
2017-11-08T00:52:35.073Z,7.10
2017-11-08T00:55:07.530Z,6.67
2017-11-08T00:57:36.830Z,5.43
2017-11-08T01:00:08.186Z,5.60
2017-11-08T01:02:37.174Z,6.67
2017-11-08T01:05:06.179Z,6.27
2017-11-08T01:07:34.371Z,5.77
2017-11-08T01:10:02.505Z,6.20
2017-11-08T01:12:30.635Z,6.00
2017-11-08T01:14:59.515Z,6.40
2017-11-08T01:17:28.378Z,5.50
2017-11-08T01:19:57.278Z,6.30
2017-11-08T01:22:25.407Z,5.77
2017-11-08T01:24:54.325Z,8.17
2017-11-08T01:27:22.459Z,5.83
2017-11-08T01:29:51.351Z,6.13
2017-11-08T01:32:19.518Z,6.50
2017-11-08T01:34:47.642Z,6.60
2017-11-08T01:37:22.237Z,6.13
2017-11-08T01:39:50.351Z,7.00
2017-11-08T01:42:18.485Z,6.07
2017-11-08T01:44:48.360Z,6.80
2017-11-08T01:47:17.227Z,7.23
2017-11-08T01:49:48.481Z,5.80
2017-11-08T01:52:16.743Z,6.50
2017-11-08T01:54:44.844Z,7.00
2017-11-08T01:57:13.896Z,7.20
2017-11-08T01:59:41.984Z,5.93
2017-11-08T02:02:10.124Z,6.27
2017-11-08T02:04:38.211Z,7.43
2017-11-08T02:07:08.027Z,6.17
2017-11-08T02:09:36.171Z,6.73
2017-11-08T02:12:04.282Z,7.13
2017-11-08T02:14:32.471Z,6.70
2017-11-08T02:17:00.715Z,6.77
2017-11-08T02:19:28.882Z,7.67
2017-11-08T02:21:56.999Z,5.90
2017-11-08T02:24:28.096Z,7.30
2017-11-08T02:27:02.654Z,7.57
2017-11-08T02:29:30.877Z,7.30
2017-11-08T02:31:59.250Z,7.60
2017-11-08T02:34:28.319Z,8.13
2017-11-08T02:36:56.481Z,7.93
2017-11-08T02:39:24.638Z,6.87
2017-11-08T02:41:52.819Z,7.33
2017-11-08T02:44:20.937Z,7.40
2017-11-08T02:46:50.738Z,7.87
2017-11-08T02:49:19.680Z,7.77
2017-11-08T02:51:47.870Z,8.40
2017-11-08T02:54:16.030Z,8.03
2017-11-08T02:56:44.173Z,8.20
2017-11-08T02:59:13.286Z,8.57
2017-11-08T03:01:41.872Z,7.57
2017-11-08T03:04:10.013Z,8.30
2017-11-08T03:06:38.180Z,8.17
2017-11-08T03:09:06.314Z,8.63
2017-11-08T03:11:34.430Z,8.23
2017-11-08T03:14:02.578Z,8.87
2017-11-08T03:16:31.702Z,8.17
2017-11-08T03:18:59.880Z,8.80
2017-11-08T03:21:28.005Z,9.47
2017-11-08T03:23:56.887Z,9.03
2017-11-08T03:26:25.038Z,9.47
2017-11-08T03:28:53.141Z,9.77
2017-11-08T03:31:21.339Z,9.50
2017-11-08T03:33:50.223Z,8.93
2017-11-08T03:36:19.119Z,8.90
2017-11-08T03:38:47.266Z,9.60
2017-11-08T03:41:15.409Z,8.80
2017-11-08T03:43:43.612Z,9.90
2017-11-08T03:46:11.763Z,8.87
2017-11-08T03:48:39.952Z,9.30
2017-11-08T03:51:08.152Z,8.43
2017-11-08T03:53:37.284Z,9.53
2017-11-08T03:56:05.470Z,9.40
2017-11-08T03:58:33.605Z,10.20
2017-11-08T04:01:01.718Z,9.50
2017-11-08T04:03:30.581Z,10.10
2017-11-08T04:05:58.838Z,10.40
2017-11-08T04:08:27.103Z,9.90
2017-11-08T04:10:55.338Z,10.73
2017-11-08T04:13:24.579Z,10.33
2017-11-08T04:15:53.161Z,10.03
2017-11-08T04:18:24.376Z,10.40
2017-11-08T04:20:52.551Z,11.10
2017-11-08T04:23:20.774Z,11.30
2017-11-08T04:25:48.979Z,11.67
2017-11-08T04:28:17.138Z,10.70
2017-11-08T04:30:45.343Z,12.03
2017-11-08T04:33:13.493Z,11.60
2017-11-08T04:35:41.661Z,12.07
2017-11-08T04:38:10.584Z,11.90
2017-11-08T04:40:38.714Z,11.70
2017-11-08T04:43:06.841Z,12.27
2017-11-08T04:45:34.991Z,11.63
2017-11-08T04:48:04.072Z,12.70
2017-11-08T04:50:32.393Z,14.57
2017-11-08T04:53:00.498Z,14.27
2017-11-08T04:55:28.627Z,14.50
2017-11-08T04:57:57.494Z,14.43
2017-11-08T05:00:25.643Z,15.00
2017-11-08T05:02:53.773Z,15.30
2017-11-08T05:05:21.865Z,14.90
2017-11-08T05:07:50.995Z,15.20
2017-11-08T05:10:19.132Z,15.57
2017-11-08T05:12:47.282Z,15.37
2017-11-08T05:15:15.412Z,16.17
2017-11-08T05:17:43.534Z,17.40
2017-11-08T05:20:11.894Z,16.43
2017-11-08T05:22:40.025Z,16.83
2017-11-08T05:25:08.241Z,15.87
2017-11-08T05:27:36.398Z,15.20
2017-11-08T05:30:06.707Z,15.50
2017-11-08T05:32:34.895Z,16.27
2017-11-08T05:35:03.146Z,15.77
2017-11-08T05:37:32.054Z,17.00
2017-11-08T05:40:00.167Z,17.50
2017-11-08T05:42:28.325Z,16.13
2017-11-08T05:44:56.478Z,17.17
2017-11-08T05:47:24.711Z,15.90
2017-11-08T05:49:52.829Z,16.30
2017-11-08T05:52:21.035Z,16.90
2017-11-08T05:54:49.346Z,16.73
2017-11-08T05:57:18.399Z,17.73
2017-11-08T05:59:46.712Z,17.17
2017-11-08T06:02:14.826Z,17.60
2017-11-08T06:04:43.738Z,18.33
2017-11-08T06:07:11.867Z,18.83
2017-11-08T06:09:40.175Z,16.87
2017-11-08T06:12:08.310Z,19.30
2017-11-08T06:14:36.389Z,19.80
2017-11-08T06:17:04.508Z,18.20
2017-11-08T06:19:32.612Z,18.00
2017-11-08T06:22:00.763Z,19.60
2017-11-08T06:24:28.870Z,18.13
2017-11-08T06:26:57.387Z,19.07
2017-11-08T06:29:25.588Z,17.57
2017-11-08T06:31:54.611Z,19.13
2017-11-08T06:34:22.744Z,18.13
2017-11-08T06:36:51.016Z,18.43
2017-11-08T06:41:57.509Z,18.67
2017-11-08T06:44:25.616Z,18.97
2017-11-08T06:46:53.737Z,19.30
2017-11-08T06:49:22.719Z,18.90
2017-11-08T06:51:51.614Z,18.37
2017-11-08T06:54:20.151Z,18.67
2017-11-08T06:56:48.360Z,17.17
2017-11-08T06:59:17.370Z,18.67
2017-11-08T07:01:45.515Z,17.60
2017-11-08T07:04:13.625Z,17.47
2017-11-08T07:06:41.768Z,19.00
2017-11-08T07:09:10.194Z,17.63
2017-11-08T07:11:38.330Z,17.73
2017-11-08T07:14:06.516Z,18.90
2017-11-08T07:16:34.679Z,17.73
2017-11-08T07:19:03.215Z,16.77
2017-11-08T07:21:31.859Z,19.50
2017-11-08T07:24:00.869Z,16.60
2017-11-08T07:26:29.109Z,20.50
2017-11-08T07:28:57.293Z,17.50
2017-11-08T07:31:26.975Z,18.37
2017-11-08T07:33:58.206Z,18.40
2017-11-08T07:39:15.865Z,17.70
2017-11-08T07:41:43.962Z,18.93
2017-11-08T07:44:12.126Z,21.43
2017-11-08T07:46:40.496Z,19.93
2017-11-08T07:49:08.658Z,17.90
2017-11-08T07:51:37.779Z,19.00
2017-11-08T07:54:12.031Z,19.13
2017-11-08T07:56:40.411Z,20.70
2017-11-08T07:59:09.821Z,20.33
2017-11-08T08:01:38.015Z,18.30
2017-11-08T08:04:06.157Z,20.83
2017-11-08T08:06:34.341Z,19.70
2017-11-08T08:09:02.489Z,21.70
2017-11-08T08:11:31.418Z,21.53
2017-11-08T08:13:59.540Z,21.00
2017-11-08T08:16:27.903Z,22.23
2017-11-08T08:18:56.067Z,22.67
2017-11-08T08:21:25.304Z,21.23
2017-11-08T08:23:54.416Z,21.30
2017-11-08T08:26:29.200Z,23.57
2017-11-08T08:28:58.557Z,21.37
2017-11-08T08:31:26.688Z,21.47
2017-11-08T08:33:54.837Z,22.20
2017-11-08T08:36:24.044Z,19.53
2017-11-08T08:41:54.122Z,20.47
2017-11-08T08:44:22.382Z,21.10
2017-11-08T08:46:50.628Z,21.97
2017-11-08T08:49:18.730Z,22.83
2017-11-08T08:52:01.014Z,21.80
2017-11-08T08:54:29.200Z,21.67
2017-11-08T08:56:58.103Z,22.37
2017-11-08T08:59:31.018Z,20.67
2017-11-08T09:01:59.116Z,19.87
2017-11-08T09:04:27.627Z,21.77
2017-11-08T09:06:55.906Z,22.37
2017-11-08T09:09:24.156Z,23.40
2017-11-08T09:11:52.273Z,22.83
2017-11-08T09:14:20.773Z,24.60
2017-11-08T09:16:51.636Z,23.70
2017-11-08T09:19:20.111Z,24.60
2017-11-08T09:21:48.343Z,24.40
2017-11-08T09:24:19.291Z,25.90
2017-11-08T09:26:47.442Z,26.80
2017-11-08T09:29:17.571Z,25.17
2017-11-08T09:31:45.868Z,24.60
2017-11-08T09:34:17.521Z,25.57
2017-11-08T09:36:45.643Z,26.43
2017-11-08T09:39:13.778Z,26.63
2017-11-08T09:41:41.916Z,26.77
2017-11-08T09:44:10.106Z,27.27
2017-11-08T09:46:38.232Z,24.73
2017-11-08T09:49:09.069Z,26.30
2017-11-08T09:51:37.288Z,26.83
2017-11-08T09:54:09.243Z,26.27
2017-11-08T09:56:38.181Z,26.10
2017-11-08T09:59:06.937Z,27.20
2017-11-08T10:01:42.854Z,27.03
2017-11-08T10:04:11.085Z,26.80
2017-11-08T10:06:40.154Z,25.57
2017-11-08T10:09:24.028Z,28.00
2017-11-08T10:11:52.873Z,27.53
2017-11-08T10:14:21.218Z,28.03
2017-11-08T10:16:49.395Z,26.73
2017-11-08T10:19:17.513Z,27.83
2017-11-08T10:21:46.427Z,26.27
2017-11-08T10:24:14.598Z,27.87
2017-11-08T10:26:42.728Z,27.20
2017-11-08T10:29:11.721Z,29.43
2017-11-08T10:31:39.931Z,26.83
2017-11-08T10:34:08.054Z,28.00
2017-11-08T10:36:38.084Z,27.20
2017-11-08T10:39:06.225Z,27.97
2017-11-08T10:41:34.401Z,26.87
2017-11-08T10:44:02.564Z,27.70
2017-11-08T10:46:31.457Z,26.67
2017-11-08T10:49:05.366Z,26.93
2017-11-08T10:51:33.482Z,28.13
2017-11-08T10:54:03.042Z,25.97
2017-11-08T10:56:31.176Z,26.70
2017-11-08T10:59:01.143Z,26.80
2017-11-08T11:01:29.553Z,28.03
2017-11-08T11:03:58.143Z,27.97
2017-11-08T11:06:26.568Z,28.23
2017-11-08T11:08:55.467Z,28.30
2017-11-08T11:11:24.512Z,29.33
2017-11-08T11:13:58.256Z,27.80
2017-11-08T11:16:29.692Z,28.90
2017-11-08T11:18:59.934Z,28.13
2017-11-08T11:21:28.923Z,29.27
2017-11-08T11:24:07.967Z,28.23
2017-11-08T11:26:41.867Z,27.83
2017-11-08T11:29:22.213Z,28.33
2017-11-08T11:31:50.411Z,28.60
2017-11-08T11:37:04.150Z,29.20
2017-11-08T11:39:36.751Z,28.00
2017-11-08T11:42:05.994Z,28.20
2017-11-08T11:44:34.761Z,27.50
2017-11-08T11:47:02.897Z,28.23
2017-11-08T11:49:37.291Z,29.37
2017-11-08T11:52:05.449Z,28.40
2017-11-08T11:54:40.316Z,28.97
2017-11-08T11:57:08.557Z,27.83
2017-11-08T11:59:37.061Z,29.07
2017-11-08T12:02:16.817Z,27.17
2017-11-08T12:04:45.344Z,29.57
2017-11-08T12:07:14.231Z,29.70
2017-11-08T12:09:42.607Z,27.90
2017-11-08T12:12:10.825Z,27.10
2017-11-08T12:14:39.126Z,27.87
2017-11-08T12:17:07.687Z,25.73
2017-11-08T12:19:37.701Z,29.20
2017-11-08T12:22:06.693Z,27.10
2017-11-08T12:24:35.643Z,27.67
2017-11-08T12:27:05.607Z,24.27
2017-11-08T12:29:36.275Z,25.07
2017-11-08T12:32:04.447Z,26.40
2017-11-08T12:34:32.580Z,23.33
2017-11-08T12:37:01.096Z,24.10
2017-11-08T12:39:29.244Z,25.47
2017-11-08T12:42:03.250Z,23.50
2017-11-08T12:44:36.173Z,24.60
2017-11-08T12:47:05.329Z,24.60
2017-11-08T12:49:33.484Z,24.80
2017-11-08T12:52:01.681Z,22.20
2017-11-08T12:54:30.611Z,24.30
2017-11-08T12:56:59.311Z,21.80
2017-11-08T12:59:27.474Z,22.37
2017-11-08T13:01:55.604Z,23.20
2017-11-08T13:04:23.806Z,22.87
2017-11-08T13:06:52.729Z,21.70
2017-11-08T13:09:21.691Z,21.50
2017-11-08T13:11:49.826Z,22.93
2017-11-08T13:14:19.347Z,22.97
2017-11-08T13:16:48.235Z,21.63
2017-11-08T13:19:16.450Z,19.20
2017-11-08T13:21:45.324Z,22.30
2017-11-08T13:24:13.464Z,20.27
2017-11-08T13:26:41.639Z,20.90
2017-11-08T13:29:11.132Z,19.77
2017-11-08T13:31:39.287Z,21.07
2017-11-08T13:34:09.582Z,19.80
2017-11-08T13:36:37.850Z,20.10
2017-11-08T13:39:06.795Z,19.33
2017-11-08T13:41:34.975Z,20.10
2017-11-08T13:44:03.967Z,19.70
2017-11-08T13:46:32.131Z,18.87
2017-11-08T13:49:00.267Z,15.47
2017-11-08T13:51:28.453Z,16.00
2017-11-08T13:53:56.576Z,16.27
2017-11-08T13:56:24.683Z,15.60
2017-11-08T13:58:52.823Z,17.47
2017-11-08T14:01:21.069Z,18.20
2017-11-08T14:03:49.252Z,15.77
2017-11-08T14:06:17.567Z,17.87
2017-11-08T14:08:46.489Z,17.30
2017-11-08T14:11:16.501Z,17.83
2017-11-08T14:13:44.679Z,16.97
2017-11-08T14:16:12.852Z,17.33
2017-11-08T14:18:44.520Z,18.73
2017-11-08T14:21:13.460Z,17.60
2017-11-08T14:23:41.833Z,17.80
2017-11-08T14:26:10.057Z,20.40
2017-11-08T14:28:38.188Z,17.37
2017-11-08T14:31:12.332Z,15.87
2017-11-08T14:33:41.487Z,18.83
2017-11-08T14:36:13.075Z,19.97
2017-11-08T14:38:50.945Z,18.90
2017-11-08T14:41:23.276Z,18.60
2017-11-08T14:43:51.515Z,20.60
2017-11-08T14:46:19.695Z,19.40
2017-11-08T14:48:47.819Z,18.60
2017-11-08T14:51:15.960Z,20.50
2017-11-08T14:53:44.861Z,20.70
2017-11-08T14:56:12.999Z,20.47
2017-11-08T14:58:41.593Z,19.90
2017-11-08T15:01:10.774Z,19.70
2017-11-08T15:03:38.902Z,19.53
2017-11-08T15:06:07.888Z,21.00
2017-11-08T15:08:37.785Z,19.20
2017-11-08T15:11:06.691Z,18.87
2017-11-08T15:13:34.853Z,19.63
2017-11-08T15:16:06.936Z,19.53
2017-11-08T15:18:37.326Z,20.60
2017-11-08T15:21:09.778Z,20.47
2017-11-08T15:23:38.014Z,22.97
2017-11-08T15:26:06.289Z,19.30
2017-11-08T15:28:34.682Z,15.97
2017-11-08T15:31:06.110Z,21.87
2017-11-08T15:33:35.083Z,19.60
2017-11-08T15:36:03.203Z,19.27
2017-11-08T15:38:31.444Z,22.10
2017-11-08T15:40:59.633Z,20.57
2017-11-08T15:43:27.776Z,20.57
2017-11-08T15:45:56.013Z,21.20
2017-11-08T15:48:31.114Z,20.40
2017-11-08T15:50:59.390Z,21.57
2017-11-08T15:53:27.602Z,21.07
2017-11-08T15:55:57.699Z,21.93
2017-11-08T15:58:26.086Z,22.30
2017-11-08T16:00:54.265Z,22.33
2017-11-08T16:03:22.384Z,21.60
2017-11-08T16:05:50.529Z,23.13
2017-11-08T16:08:18.719Z,21.27
2017-11-08T16:10:51.021Z,21.27
2017-11-08T16:13:20.866Z,22.30
2017-11-08T16:15:49.055Z,20.63
2017-11-08T16:18:17.586Z,20.47
2017-11-08T16:20:46.244Z,21.47
2017-11-08T16:23:14.387Z,21.33
2017-11-08T16:25:42.524Z,22.30
2017-11-08T16:28:19.390Z,23.37
2017-11-08T16:30:47.614Z,21.23
2017-11-08T16:33:17.620Z,21.90
2017-11-08T16:35:45.824Z,22.87
2017-11-08T16:38:14.219Z,21.00
2017-11-08T16:40:42.348Z,23.80
2017-11-08T16:43:10.536Z,21.43
2017-11-08T16:45:38.688Z,21.30
2017-11-08T16:48:06.810Z,21.60
2017-11-08T16:50:34.997Z,21.53
2017-11-08T16:53:03.348Z,21.30
2017-11-08T16:55:33.146Z,21.17
2017-11-08T16:58:01.320Z,22.07
2017-11-08T17:00:29.508Z,20.47
2017-11-08T17:02:57.679Z,19.87
2017-11-08T17:05:29.616Z,22.10
2017-11-08T17:07:58.563Z,21.27
2017-11-08T17:10:28.963Z,23.40
2017-11-08T17:12:57.658Z,21.70
2017-11-08T17:15:27.670Z,20.80
2017-11-08T17:17:56.150Z,23.07
2017-11-08T17:20:24.313Z,21.30
2017-11-08T17:22:52.516Z,20.90
2017-11-08T17:25:20.650Z,21.17
2017-11-08T17:27:48.900Z,20.53
2017-11-08T17:30:17.085Z,22.23
2017-11-08T17:32:45.184Z,22.50
2017-11-08T17:35:13.353Z,21.60
2017-11-08T17:37:41.483Z,22.70
2017-11-08T17:40:09.570Z,21.87
2017-11-08T17:42:37.679Z,22.53
2017-11-08T17:45:06.694Z,23.17
2017-11-08T17:47:34.840Z,22.37
2017-11-08T17:50:03.049Z,22.33
2017-11-08T17:52:31.196Z,21.03
2017-11-08T17:54:59.292Z,22.10
2017-11-08T17:57:27.464Z,22.77
2017-11-08T17:59:55.690Z,23.07
2017-11-08T18:02:24.190Z,23.30
2017-11-08T18:04:52.732Z,22.77
2017-11-08T18:07:21.200Z,23.47
2017-11-08T18:09:50.197Z,23.80
2017-11-08T18:12:20.025Z,23.10
2017-11-08T18:14:48.129Z,24.20
2017-11-08T18:17:20.672Z,23.80
2017-11-08T18:19:48.892Z,22.37
2017-11-08T18:22:17.156Z,23.03
2017-11-08T18:24:45.340Z,23.67
2017-11-08T18:27:13.499Z,22.40
2017-11-08T18:29:41.684Z,23.17
2017-11-08T18:32:09.896Z,22.63
2017-11-08T18:34:38.031Z,23.80
2017-11-08T18:37:06.215Z,24.57
2017-11-08T18:39:34.317Z,24.63
2017-11-08T18:42:02.423Z,22.47
2017-11-08T18:44:30.596Z,22.40
2017-11-08T18:46:58.743Z,24.07
2017-11-08T18:49:26.984Z,23.63
2017-11-08T18:51:55.157Z,22.70
2017-11-08T18:54:23.300Z,23.43
2017-11-08T18:56:55.394Z,23.40
2017-11-08T18:59:27.772Z,22.87
2017-11-08T19:01:55.881Z,24.10
2017-11-08T19:04:24.099Z,24.50
2017-11-08T19:06:52.226Z,26.63
2017-11-08T19:09:20.367Z,24.00
2017-11-08T19:11:48.478Z,25.40
2017-11-08T19:14:17.558Z,26.63
2017-11-08T19:16:46.496Z,23.53
2017-11-08T19:19:14.729Z,24.53
2017-11-08T19:21:42.836Z,24.00
2017-11-08T19:24:11.725Z,20.90
2017-11-08T19:26:39.889Z,25.50
2017-11-08T19:29:07.998Z,24.40
2017-11-08T19:31:36.190Z,23.33
2017-11-08T19:34:05.090Z,25.00
2017-11-08T19:36:33.223Z,25.60
2017-11-08T19:39:01.376Z,24.50
2017-11-08T19:41:29.536Z,26.43
2017-11-08T19:43:58.488Z,24.87
2017-11-08T19:46:26.649Z,25.23
2017-11-08T19:48:54.792Z,26.03
2017-11-08T19:51:22.972Z,22.93
2017-11-08T19:53:51.196Z,25.60
2017-11-08T19:56:20.202Z,26.23
2017-11-08T19:58:48.308Z,24.80
2017-11-08T20:01:16.501Z,26.57
2017-11-08T20:03:57.813Z,24.80
2017-11-08T20:06:26.110Z,24.30
2017-11-08T20:08:54.223Z,27.87
2017-11-08T20:11:22.383Z,25.03
2017-11-08T20:13:50.742Z,25.43
2017-11-08T20:16:19.115Z,27.37
2017-11-08T20:18:47.971Z,24.50
2017-11-08T20:21:17.107Z,25.73
2017-11-08T20:23:48.879Z,26.63
2017-11-08T20:26:17.066Z,26.63
2017-11-08T20:28:45.492Z,26.60
2017-11-08T20:31:13.581Z,26.07
2017-11-08T20:33:43.720Z,26.77
2017-11-08T20:36:11.841Z,25.90
2017-11-08T20:38:39.959Z,25.87
2017-11-08T20:41:08.346Z,27.20
2017-11-08T20:43:47.313Z,26.87
2017-11-08T20:46:15.442Z,26.43
2017-11-08T20:48:43.625Z,27.20
2017-11-08T20:51:11.743Z,25.93
2017-11-08T20:53:39.861Z,27.00
2017-11-08T20:56:08.001Z,27.43
2017-11-08T20:58:47.921Z,26.60
2017-11-08T21:01:17.972Z,27.13
2017-11-08T21:03:51.763Z,27.60
2017-11-08T21:06:19.938Z,27.20
2017-11-08T21:08:48.893Z,26.13
2017-11-08T21:11:17.148Z,25.97
2017-11-08T21:13:45.273Z,27.70
2017-11-08T21:16:14.520Z,26.87
2017-11-08T21:18:42.672Z,27.40
2017-11-08T21:21:10.902Z,26.13
2017-11-08T21:23:39.063Z,27.03
2017-11-08T21:26:08.075Z,26.83
2017-11-08T21:28:36.236Z,26.43
2017-11-08T21:31:05.290Z,27.37
2017-11-08T21:33:35.128Z,25.83
2017-11-08T21:36:03.299Z,25.47
2017-11-08T21:38:31.434Z,28.17
2017-11-08T21:40:59.558Z,26.27
2017-11-08T21:43:27.699Z,26.60
2017-11-08T21:45:56.577Z,28.10
2017-11-08T21:48:28.085Z,28.90
2017-11-08T21:50:56.212Z,27.80
2017-11-08T21:53:25.549Z,27.40
2017-11-08T21:55:53.760Z,27.23
2017-11-08T21:58:22.062Z,27.70
2017-11-08T22:00:50.617Z,25.57
2017-11-08T22:03:19.896Z,29.30
2017-11-08T22:05:48.355Z,26.47
2017-11-08T22:08:16.510Z,27.87
2017-11-08T22:10:44.627Z,27.10
2017-11-08T22:13:12.748Z,26.93
2017-11-08T22:15:40.868Z,27.47
2017-11-08T22:18:08.992Z,26.33
2017-11-08T22:20:52.020Z,27.13
2017-11-08T22:26:20.617Z,29.03
2017-11-08T22:28:48.760Z,25.87
2017-11-08T22:31:17.950Z,28.63
2017-11-08T22:33:46.083Z,26.90
2017-11-08T22:36:14.256Z,27.90
2017-11-08T22:38:42.388Z,28.10
2017-11-08T22:41:10.499Z,28.30
2017-11-08T22:43:38.612Z,31.33
2017-11-08T22:46:06.805Z,30.47
2017-11-08T22:48:35.903Z,28.33
2017-11-08T22:51:04.791Z,29.07
2017-11-08T22:53:33.658Z,27.47
2017-11-08T22:56:01.789Z,30.30
2017-11-08T22:58:29.908Z,28.60
2017-11-08T23:00:58.096Z,30.07
2017-11-08T23:03:26.211Z,28.50
2017-11-08T23:05:54.409Z,27.00
2017-11-08T23:08:23.608Z,29.83
2017-11-08T23:10:51.850Z,29.00
2017-11-08T23:13:20.017Z,29.90
2017-11-08T23:15:49.130Z,29.97
2017-11-08T23:18:17.239Z,27.40
2017-11-08T23:20:45.384Z,28.43
2017-11-08T23:23:13.491Z,27.97
2017-11-08T23:25:47.184Z,29.50
2017-11-08T23:28:16.152Z,29.23
2017-11-08T23:30:49.979Z,25.83
2017-11-08T23:33:18.107Z,26.27
2017-11-08T23:35:47.072Z,28.20
2017-11-08T23:38:15.159Z,27.00
2017-11-08T23:40:43.390Z,29.97
2017-11-08T23:43:12.607Z,26.20
2017-11-08T23:45:40.746Z,29.30
2017-11-08T23:48:09.749Z,27.87
2017-11-08T23:50:39.898Z,26.93
2017-11-08T23:53:10.820Z,27.90
2017-11-08T23:55:39.203Z,28.73
2017-11-08T23:58:07.338Z,26.47
